sensor_id;sensor_type;location;lat;lon;timestamp;temperature;humidity
8862;DHT22;4799;50.996;4.754;2022-12-18T00:00:43;-6.30;99.90
8862;DHT22;4799;50.996;4.754;2022-12-18T00:03:09;-6.40;99.90
8862;DHT22;4799;50.996;4.754;2022-12-18T00:05:36;-6.40;99.90
8862;DHT22;4799;50.996;4.754;2022-12-18T00:08:02;-6.40;99.90
8862;DHT22;4799;50.996;4.754;2022-12-18T00:10:28;-6.40;99.90
8862;DHT22;4799;50.996;4.754;2022-12-18T00:12:54;-6.50;99.90
8862;DHT22;4799;50.996;4.754;2022-12-18T00:15:20;-6.40;99.90
8862;DHT22;4799;50.996;4.754;2022-12-18T00:17:46;-6.50;99.90
8862;DHT22;4799;50.996;4.754;2022-12-18T00:20:11;-6.50;99.90
8862;DHT22;4799;50.996;4.754;2022-12-18T00:22:37;-6.50;99.90
8862;DHT22;4799;50.996;4.754;2022-12-18T00:25:03;-6.50;99.90
8862;DHT22;4799;50.996;4.754;2022-12-18T00:27:29;-6.50;99.90
8862;DHT22;4799;50.996;4.754;2022-12-18T00:29:54;-6.60;99.90
8862;DHT22;4799;50.996;4.754;2022-12-18T00:32:20;-6.60;99.90
8862;DHT22;4799;50.996;4.754;2022-12-18T00:34:46;-6.60;99.90
8862;DHT22;4799;50.996;4.754;2022-12-18T00:37:12;-6.60;99.90
8862;DHT22;4799;50.996;4.754;2022-12-18T00:39:37;-6.60;99.90
8862;DHT22;4799;50.996;4.754;2022-12-18T00:42:03;-6.70;99.90
8862;DHT22;4799;50.996;4.754;2022-12-18T00:44:47;-6.70;99.90
8862;DHT22;4799;50.996;4.754;2022-12-18T00:47:13;-6.80;99.90
8862;DHT22;4799;50.996;4.754;2022-12-18T00:49:39;-6.80;99.90
8862;DHT22;4799;50.996;4.754;2022-12-18T00:52:05;-6.90;99.90
8862;DHT22;4799;50.996;4.754;2022-12-18T00:54:30;-6.90;99.90
8862;DHT22;4799;50.996;4.754;2022-12-18T00:56:56;-6.90;99.90
8862;DHT22;4799;50.996;4.754;2022-12-18T00:59:22;-7.00;99.90
8862;DHT22;4799;50.996;4.754;2022-12-18T01:01:47;-7.00;99.90
8862;DHT22;4799;50.996;4.754;2022-12-18T01:04:14;-7.10;99.90
8862;DHT22;4799;50.996;4.754;2022-12-18T01:06:40;-7.10;99.90
8862;DHT22;4799;50.996;4.754;2022-12-18T01:09:05;-7.10;99.90
8862;DHT22;4799;50.996;4.754;2022-12-18T01:11:31;-7.20;99.90
8862;DHT22;4799;50.996;4.754;2022-12-18T01:14:00;-7.20;99.90
8862;DHT22;4799;50.996;4.754;2022-12-18T01:16:26;-7.20;99.90
8862;DHT22;4799;50.996;4.754;2022-12-18T01:18:53;-7.20;99.90
8862;DHT22;4799;50.996;4.754;2022-12-18T01:21:20;-7.20;99.90
8862;DHT22;4799;50.996;4.754;2022-12-18T01:23:46;-7.20;99.90
8862;DHT22;4799;50.996;4.754;2022-12-18T01:26:14;-7.20;99.90
8862;DHT22;4799;50.996;4.754;2022-12-18T01:28:41;-7.20;99.90
8862;DHT22;4799;50.996;4.754;2022-12-18T01:31:11;-7.20;99.90
8862;DHT22;4799;50.996;4.754;2022-12-18T01:33:37;-7.20;99.90
8862;DHT22;4799;50.996;4.754;2022-12-18T01:36:03;-7.20;99.90
8862;DHT22;4799;50.996;4.754;2022-12-18T01:38:29;-7.20;99.90
8862;DHT22;4799;50.996;4.754;2022-12-18T01:40:59;-7.20;99.90
8862;DHT22;4799;50.996;4.754;2022-12-18T01:43:42;-7.20;99.90
8862;DHT22;4799;50.996;4.754;2022-12-18T01:46:08;-7.20;99.90
8862;DHT22;4799;50.996;4.754;2022-12-18T01:48:35;-7.20;99.90
8862;DHT22;4799;50.996;4.754;2022-12-18T01:51:01;-7.30;99.90
8862;DHT22;4799;50.996;4.754;2022-12-18T01:53:27;-7.30;99.90
8862;DHT22;4799;50.996;4.754;2022-12-18T01:55:55;-7.30;99.90
8862;DHT22;4799;50.996;4.754;2022-12-18T01:58:29;-7.30;99.90
8862;DHT22;4799;50.996;4.754;2022-12-18T02:00:55;-7.30;99.90
8862;DHT22;4799;50.996;4.754;2022-12-18T02:03:21;-7.50;99.90
8862;DHT22;4799;50.996;4.754;2022-12-18T02:06:09;-7.50;99.90
8862;DHT22;4799;50.996;4.754;2022-12-18T02:08:50;-7.50;99.90
8862;DHT22;4799;50.996;4.754;2022-12-18T02:11:27;-7.60;99.90
8862;DHT22;4799;50.996;4.754;2022-12-18T02:14:34;-7.60;99.90
8862;DHT22;4799;50.996;4.754;2022-12-18T02:27:54;-7.50;99.90
8862;DHT22;4799;50.996;4.754;2022-12-18T02:30:22;-7.50;99.90
8862;DHT22;4799;50.996;4.754;2022-12-18T02:32:52;-7.50;99.90
8862;DHT22;4799;50.996;4.754;2022-12-18T02:35:26;-7.50;99.90
8862;DHT22;4799;50.996;4.754;2022-12-18T02:37:53;-7.50;99.90
8862;DHT22;4799;50.996;4.754;2022-12-18T02:40:21;-7.60;99.90
8862;DHT22;4799;50.996;4.754;2022-12-18T02:42:47;-7.60;99.90
8862;DHT22;4799;50.996;4.754;2022-12-18T02:45:13;-7.60;99.90
8862;DHT22;4799;50.996;4.754;2022-12-18T02:47:41;-7.70;99.90
8862;DHT22;4799;50.996;4.754;2022-12-18T02:50:30;-7.60;99.90
8862;DHT22;4799;50.996;4.754;2022-12-18T03:03:45;-7.90;99.90
8862;DHT22;4799;50.996;4.754;2022-12-18T03:06:40;-7.90;99.90
8862;DHT22;4799;50.996;4.754;2022-12-18T03:09:15;-7.90;99.90
8862;DHT22;4799;50.996;4.754;2022-12-18T03:11:47;-8.00;99.90
8862;DHT22;4799;50.996;4.754;2022-12-18T03:14:34;-8.00;99.90
8862;DHT22;4799;50.996;4.754;2022-12-18T03:17:06;-8.10;99.90
8862;DHT22;4799;50.996;4.754;2022-12-18T03:19:34;-8.10;99.90
8862;DHT22;4799;50.996;4.754;2022-12-18T03:22:02;-8.10;99.90
8862;DHT22;4799;50.996;4.754;2022-12-18T03:24:31;-8.10;99.90
8862;DHT22;4799;50.996;4.754;2022-12-18T03:27:08;-8.10;99.90
8862;DHT22;4799;50.996;4.754;2022-12-18T03:30:05;-8.20;99.90
8862;DHT22;4799;50.996;4.754;2022-12-18T03:32:57;-8.20;99.90
8862;DHT22;4799;50.996;4.754;2022-12-18T03:35:28;-8.20;99.90
8862;DHT22;4799;50.996;4.754;2022-12-18T03:37:55;-8.30;99.90
8862;DHT22;4799;50.996;4.754;2022-12-18T03:40:29;-8.30;99.90
8862;DHT22;4799;50.996;4.754;2022-12-18T03:43:07;-8.30;99.90
8862;DHT22;4799;50.996;4.754;2022-12-18T03:45:52;-8.30;99.90
8862;DHT22;4799;50.996;4.754;2022-12-18T03:48:32;-8.30;99.90
8862;DHT22;4799;50.996;4.754;2022-12-18T03:51:08;-8.30;99.90
8862;DHT22;4799;50.996;4.754;2022-12-18T03:53:57;-8.30;99.90
8862;DHT22;4799;50.996;4.754;2022-12-18T03:56:26;-8.30;99.90
8862;DHT22;4799;50.996;4.754;2022-12-18T03:58:53;-8.30;99.90
8862;DHT22;4799;50.996;4.754;2022-12-18T04:01:26;-8.30;99.90
8862;DHT22;4799;50.996;4.754;2022-12-18T04:03:54;-8.30;99.90
8862;DHT22;4799;50.996;4.754;2022-12-18T04:06:22;-8.30;99.90
8862;DHT22;4799;50.996;4.754;2022-12-18T04:08:49;-8.40;99.90
8862;DHT22;4799;50.996;4.754;2022-12-18T04:11:15;-8.40;99.90
8862;DHT22;4799;50.996;4.754;2022-12-18T04:13:42;-8.50;99.90
8862;DHT22;4799;50.996;4.754;2022-12-18T04:16:08;-8.50;99.90
8862;DHT22;4799;50.996;4.754;2022-12-18T04:18:35;-8.50;99.90
8862;DHT22;4799;50.996;4.754;2022-12-18T04:21:01;-8.50;99.90
8862;DHT22;4799;50.996;4.754;2022-12-18T04:23:27;-8.50;99.90
8862;DHT22;4799;50.996;4.754;2022-12-18T04:25:54;-8.50;99.90
8862;DHT22;4799;50.996;4.754;2022-12-18T04:28:20;-8.50;99.90
8862;DHT22;4799;50.996;4.754;2022-12-18T04:30:45;-8.60;99.90
8862;DHT22;4799;50.996;4.754;2022-12-18T04:33:13;-8.50;99.90
8862;DHT22;4799;50.996;4.754;2022-12-18T04:35:39;-8.50;99.90
8862;DHT22;4799;50.996;4.754;2022-12-18T04:38:06;-8.50;99.90
8862;DHT22;4799;50.996;4.754;2022-12-18T04:40:34;-8.50;99.90
8862;DHT22;4799;50.996;4.754;2022-12-18T04:42:59;-8.40;99.90
8862;DHT22;4799;50.996;4.754;2022-12-18T04:45:25;-8.40;99.90
8862;DHT22;4799;50.996;4.754;2022-12-18T04:47:51;-8.40;99.90
8862;DHT22;4799;50.996;4.754;2022-12-18T04:50:17;-8.30;99.90
8862;DHT22;4799;50.996;4.754;2022-12-18T04:52:43;-8.30;99.90
8862;DHT22;4799;50.996;4.754;2022-12-18T04:55:08;-8.20;99.90
8862;DHT22;4799;50.996;4.754;2022-12-18T04:57:34;-8.30;99.90
8862;DHT22;4799;50.996;4.754;2022-12-18T05:00:00;-8.30;99.90
8862;DHT22;4799;50.996;4.754;2022-12-18T05:02:26;-8.30;99.90
8862;DHT22;4799;50.996;4.754;2022-12-18T05:04:52;-8.30;99.90
8862;DHT22;4799;50.996;4.754;2022-12-18T05:07:17;-8.30;99.90
8862;DHT22;4799;50.996;4.754;2022-12-18T05:09:43;-8.30;99.90
8862;DHT22;4799;50.996;4.754;2022-12-18T05:12:09;-8.30;99.90
8862;DHT22;4799;50.996;4.754;2022-12-18T05:14:34;-8.30;99.90
8862;DHT22;4799;50.996;4.754;2022-12-18T05:17:00;-8.30;99.90
8862;DHT22;4799;50.996;4.754;2022-12-18T05:19:26;-8.40;99.90
8862;DHT22;4799;50.996;4.754;2022-12-18T05:21:51;-8.40;99.90
8862;DHT22;4799;50.996;4.754;2022-12-18T05:24:17;-8.50;99.90
8862;DHT22;4799;50.996;4.754;2022-12-18T05:26:43;-8.40;99.90
8862;DHT22;4799;50.996;4.754;2022-12-18T05:29:09;-8.50;99.90
8862;DHT22;4799;50.996;4.754;2022-12-18T05:31:38;-8.50;99.90
8862;DHT22;4799;50.996;4.754;2022-12-18T05:34:04;-8.50;99.90
8862;DHT22;4799;50.996;4.754;2022-12-18T05:36:29;-8.50;99.90
8862;DHT22;4799;50.996;4.754;2022-12-18T05:38:55;-8.50;99.90
8862;DHT22;4799;50.996;4.754;2022-12-18T05:41:21;-8.50;99.90
8862;DHT22;4799;50.996;4.754;2022-12-18T05:43:47;-8.50;99.90
8862;DHT22;4799;50.996;4.754;2022-12-18T05:46:15;-8.50;99.90
8862;DHT22;4799;50.996;4.754;2022-12-18T05:48:42;-8.60;99.90
8862;DHT22;4799;50.996;4.754;2022-12-18T05:51:13;-8.60;99.90
8862;DHT22;4799;50.996;4.754;2022-12-18T05:53:40;-8.60;99.90
8862;DHT22;4799;50.996;4.754;2022-12-18T05:56:09;-8.70;99.90
8862;DHT22;4799;50.996;4.754;2022-12-18T05:58:35;-8.70;99.90
8862;DHT22;4799;50.996;4.754;2022-12-18T06:01:16;-8.80;99.90
8862;DHT22;4799;50.996;4.754;2022-12-18T06:03:43;-8.80;99.90
8862;DHT22;4799;50.996;4.754;2022-12-18T06:06:28;-8.80;99.90
8862;DHT22;4799;50.996;4.754;2022-12-18T06:08:55;-8.80;99.90
8862;DHT22;4799;50.996;4.754;2022-12-18T06:11:24;-8.80;99.90
8862;DHT22;4799;50.996;4.754;2022-12-18T06:13:51;-8.80;99.90
8862;DHT22;4799;50.996;4.754;2022-12-18T06:16:17;-8.80;99.90
8862;DHT22;4799;50.996;4.754;2022-12-18T06:18:43;-8.80;99.90
8862;DHT22;4799;50.996;4.754;2022-12-18T06:21:09;-8.70;99.90
8862;DHT22;4799;50.996;4.754;2022-12-18T06:23:35;-8.70;99.90
8862;DHT22;4799;50.996;4.754;2022-12-18T06:26:08;-8.60;99.90
8862;DHT22;4799;50.996;4.754;2022-12-18T06:28:35;-8.60;99.90
8862;DHT22;4799;50.996;4.754;2022-12-18T06:31:02;-8.60;99.90
8862;DHT22;4799;50.996;4.754;2022-12-18T06:33:29;-8.60;99.90
8862;DHT22;4799;50.996;4.754;2022-12-18T06:36:00;-8.60;99.90
8862;DHT22;4799;50.996;4.754;2022-12-18T06:38:26;-8.60;99.90
8862;DHT22;4799;50.996;4.754;2022-12-18T06:40:52;-8.60;99.90
8862;DHT22;4799;50.996;4.754;2022-12-18T06:43:18;-8.60;99.90
8862;DHT22;4799;50.996;4.754;2022-12-18T06:45:43;-8.60;99.90
8862;DHT22;4799;50.996;4.754;2022-12-18T06:48:09;-8.60;99.90
8862;DHT22;4799;50.996;4.754;2022-12-18T06:50:35;-8.60;99.90
8862;DHT22;4799;50.996;4.754;2022-12-18T06:53:01;-8.60;99.90
8862;DHT22;4799;50.996;4.754;2022-12-18T06:55:26;-8.60;99.90
8862;DHT22;4799;50.996;4.754;2022-12-18T06:57:52;-8.60;99.90
8862;DHT22;4799;50.996;4.754;2022-12-18T07:00:18;-8.60;99.90
8862;DHT22;4799;50.996;4.754;2022-12-18T07:02:44;-8.60;99.90
8862;DHT22;4799;50.996;4.754;2022-12-18T07:05:09;-8.50;99.90
8862;DHT22;4799;50.996;4.754;2022-12-18T07:07:35;-8.50;99.90
8862;DHT22;4799;50.996;4.754;2022-12-18T07:10:01;-8.50;99.90
8862;DHT22;4799;50.996;4.754;2022-12-18T07:12:27;-8.50;99.90
8862;DHT22;4799;50.996;4.754;2022-12-18T07:14:53;-8.50;99.90
8862;DHT22;4799;50.996;4.754;2022-12-18T07:17:18;-8.50;99.90
8862;DHT22;4799;50.996;4.754;2022-12-18T07:19:44;-8.50;99.90
8862;DHT22;4799;50.996;4.754;2022-12-18T07:22:10;-8.40;99.90
8862;DHT22;4799;50.996;4.754;2022-12-18T07:24:36;-8.40;99.90
8862;DHT22;4799;50.996;4.754;2022-12-18T07:27:02;-8.40;99.90
8862;DHT22;4799;50.996;4.754;2022-12-18T07:29:27;-8.30;99.90
8862;DHT22;4799;50.996;4.754;2022-12-18T07:31:53;-8.30;99.90
8862;DHT22;4799;50.996;4.754;2022-12-18T07:34:19;-8.30;99.90
8862;DHT22;4799;50.996;4.754;2022-12-18T07:36:45;-8.30;99.90
8862;DHT22;4799;50.996;4.754;2022-12-18T07:39:11;-8.30;99.90
8862;DHT22;4799;50.996;4.754;2022-12-18T07:41:37;-8.30;99.90
8862;DHT22;4799;50.996;4.754;2022-12-18T07:44:03;-8.30;99.90
8862;DHT22;4799;50.996;4.754;2022-12-18T07:46:29;-8.30;99.90
8862;DHT22;4799;50.996;4.754;2022-12-18T07:48:54;-8.30;99.90
8862;DHT22;4799;50.996;4.754;2022-12-18T07:51:20;-8.20;99.90
8862;DHT22;4799;50.996;4.754;2022-12-18T07:53:46;-8.20;99.90
8862;DHT22;4799;50.996;4.754;2022-12-18T07:56:12;-8.20;99.90
8862;DHT22;4799;50.996;4.754;2022-12-18T07:58:38;-8.20;99.90
8862;DHT22;4799;50.996;4.754;2022-12-18T08:01:09;-8.20;99.90
8862;DHT22;4799;50.996;4.754;2022-12-18T08:03:35;-8.20;99.90
8862;DHT22;4799;50.996;4.754;2022-12-18T08:06:03;-8.20;99.90
8862;DHT22;4799;50.996;4.754;2022-12-18T08:08:29;-8.10;99.90
8862;DHT22;4799;50.996;4.754;2022-12-18T08:10:58;-8.10;99.90
8862;DHT22;4799;50.996;4.754;2022-12-18T08:13:24;-8.00;99.90
8862;DHT22;4799;50.996;4.754;2022-12-18T08:16:02;-8.00;99.90
8862;DHT22;4799;50.996;4.754;2022-12-18T08:18:29;-8.00;99.90
8862;DHT22;4799;50.996;4.754;2022-12-18T08:20:55;-7.90;99.90
8862;DHT22;4799;50.996;4.754;2022-12-18T08:23:21;-7.90;99.90
8862;DHT22;4799;50.996;4.754;2022-12-18T08:25:47;-7.80;99.90
8862;DHT22;4799;50.996;4.754;2022-12-18T08:28:16;-7.70;99.90
8862;DHT22;4799;50.996;4.754;2022-12-18T08:30:42;-7.60;99.90
8862;DHT22;4799;50.996;4.754;2022-12-18T08:33:08;-7.60;99.90
8862;DHT22;4799;50.996;4.754;2022-12-18T08:35:36;-7.50;99.90
8862;DHT22;4799;50.996;4.754;2022-12-18T08:38:03;-7.40;99.90
8862;DHT22;4799;50.996;4.754;2022-12-18T08:40:29;-7.30;99.90
8862;DHT22;4799;50.996;4.754;2022-12-18T08:42:54;-7.20;99.90
8862;DHT22;4799;50.996;4.754;2022-12-18T08:45:39;-7.10;99.90
8862;DHT22;4799;50.996;4.754;2022-12-18T08:48:05;-7.00;99.90
8862;DHT22;4799;50.996;4.754;2022-12-18T08:50:30;-6.90;99.90
8862;DHT22;4799;50.996;4.754;2022-12-18T08:52:56;-6.80;99.90
8862;DHT22;4799;50.996;4.754;2022-12-18T08:55:22;-6.80;99.90
8862;DHT22;4799;50.996;4.754;2022-12-18T08:57:48;-6.70;99.90
8862;DHT22;4799;50.996;4.754;2022-12-18T09:00:15;-6.60;99.90
8862;DHT22;4799;50.996;4.754;2022-12-18T09:02:41;-6.50;99.90
8862;DHT22;4799;50.996;4.754;2022-12-18T09:05:07;-6.40;99.90
8862;DHT22;4799;50.996;4.754;2022-12-18T09:07:32;-6.30;99.90
8862;DHT22;4799;50.996;4.754;2022-12-18T09:09:58;-6.20;99.90
8862;DHT22;4799;50.996;4.754;2022-12-18T09:12:24;-6.10;99.90
8862;DHT22;4799;50.996;4.754;2022-12-18T09:14:50;-6.10;99.90
8862;DHT22;4799;50.996;4.754;2022-12-18T09:17:16;-5.90;99.90
8862;DHT22;4799;50.996;4.754;2022-12-18T09:19:41;-5.90;99.90
8862;DHT22;4799;50.996;4.754;2022-12-18T09:22:07;-5.80;99.90
8862;DHT22;4799;50.996;4.754;2022-12-18T09:24:33;-5.70;99.90
8862;DHT22;4799;50.996;4.754;2022-12-18T09:26:58;-5.60;99.90
8862;DHT22;4799;50.996;4.754;2022-12-18T09:29:24;-5.50;99.90
8862;DHT22;4799;50.996;4.754;2022-12-18T09:31:50;-5.30;99.90
8862;DHT22;4799;50.996;4.754;2022-12-18T09:34:16;-5.20;99.90
8862;DHT22;4799;50.996;4.754;2022-12-18T09:36:42;-5.10;99.90
8862;DHT22;4799;50.996;4.754;2022-12-18T09:39:08;-5.00;99.90
8862;DHT22;4799;50.996;4.754;2022-12-18T09:41:41;-4.90;99.90
8862;DHT22;4799;50.996;4.754;2022-12-18T09:44:34;-4.80;99.90
8862;DHT22;4799;50.996;4.754;2022-12-18T09:49:52;-4.60;99.90
8862;DHT22;4799;50.996;4.754;2022-12-18T09:52:44;-4.50;99.90
8862;DHT22;4799;50.996;4.754;2022-12-18T09:55:28;-4.40;99.90
8862;DHT22;4799;50.996;4.754;2022-12-18T09:58:00;-4.20;99.90
8862;DHT22;4799;50.996;4.754;2022-12-18T10:00:27;-4.10;99.90
8862;DHT22;4799;50.996;4.754;2022-12-18T10:02:59;-4.10;99.90
8862;DHT22;4799;50.996;4.754;2022-12-18T10:20:13;-3.50;99.90
8862;DHT22;4799;50.996;4.754;2022-12-18T10:28:22;-3.30;99.90
8862;DHT22;4799;50.996;4.754;2022-12-18T10:30:49;-3.20;99.90
8862;DHT22;4799;50.996;4.754;2022-12-18T10:33:18;-3.10;99.90
8862;DHT22;4799;50.996;4.754;2022-12-18T10:35:45;-3.10;99.90
8862;DHT22;4799;50.996;4.754;2022-12-18T10:41:00;-2.90;99.90
8862;DHT22;4799;50.996;4.754;2022-12-18T10:43:36;-2.90;99.90
8862;DHT22;4799;50.996;4.754;2022-12-18T10:51:30;-2.60;99.90
8862;DHT22;4799;50.996;4.754;2022-12-18T10:53:57;-2.60;99.90
8862;DHT22;4799;50.996;4.754;2022-12-18T10:56:27;-2.50;99.90
8862;DHT22;4799;50.996;4.754;2022-12-18T10:59:03;-2.40;99.90
8862;DHT22;4799;50.996;4.754;2022-12-18T11:04:26;-2.30;99.90
8862;DHT22;4799;50.996;4.754;2022-12-18T11:07:01;-2.20;99.90
8862;DHT22;4799;50.996;4.754;2022-12-18T11:09:29;-2.10;99.90
8862;DHT22;4799;50.996;4.754;2022-12-18T11:11:58;-2.10;99.90
8862;DHT22;4799;50.996;4.754;2022-12-18T11:16:56;-1.90;99.90
8862;DHT22;4799;50.996;4.754;2022-12-18T11:21:58;-1.80;99.90
8862;DHT22;4799;50.996;4.754;2022-12-18T11:24:35;-1.70;99.90
8862;DHT22;4799;50.996;4.754;2022-12-18T11:27:06;-1.60;99.90
8862;DHT22;4799;50.996;4.754;2022-12-18T11:29:41;-1.50;99.90
8862;DHT22;4799;50.996;4.754;2022-12-18T11:35:10;-1.40;99.90
8862;DHT22;4799;50.996;4.754;2022-12-18T11:37:40;-1.40;99.90
8862;DHT22;4799;50.996;4.754;2022-12-18T11:40:14;-1.40;99.90
8862;DHT22;4799;50.996;4.754;2022-12-18T11:42:53;-1.30;99.90
8862;DHT22;4799;50.996;4.754;2022-12-18T11:45:24;-1.30;99.90
8862;DHT22;4799;50.996;4.754;2022-12-18T11:48:14;-1.30;99.90
8862;DHT22;4799;50.996;4.754;2022-12-18T11:50:52;-1.20;99.90
8862;DHT22;4799;50.996;4.754;2022-12-18T11:53:20;-1.20;99.90
8862;DHT22;4799;50.996;4.754;2022-12-18T11:56:22;-1.20;99.90
8862;DHT22;4799;50.996;4.754;2022-12-18T12:01:50;-1.10;99.90
8862;DHT22;4799;50.996;4.754;2022-12-18T12:09:57;-1.00;99.90
8862;DHT22;4799;50.996;4.754;2022-12-18T12:19:02;-0.90;99.90
8862;DHT22;4799;50.996;4.754;2022-12-18T12:21:14;-0.90;99.90
8862;DHT22;4799;50.996;4.754;2022-12-18T12:27:02;-0.70;99.90
8862;DHT22;4799;50.996;4.754;2022-12-18T12:40:28;-0.50;99.90
8862;DHT22;4799;50.996;4.754;2022-12-18T12:43:03;-0.40;99.90
8862;DHT22;4799;50.996;4.754;2022-12-18T12:45:45;-0.40;99.90
8862;DHT22;4799;50.996;4.754;2022-12-18T12:51:01;-0.30;99.90
8862;DHT22;4799;50.996;4.754;2022-12-18T12:53:35;-0.20;99.90
8862;DHT22;4799;50.996;4.754;2022-12-18T12:56:01;-0.20;99.90
8862;DHT22;4799;50.996;4.754;2022-12-18T12:58:52;-0.20;99.90
8862;DHT22;4799;50.996;4.754;2022-12-18T13:04:25;-0.10;99.90
8862;DHT22;4799;50.996;4.754;2022-12-18T13:07:08;-0.10;99.90
8862;DHT22;4799;50.996;4.754;2022-12-18T13:13:00;0.00;99.90
8862;DHT22;4799;50.996;4.754;2022-12-18T13:18:10;0.10;99.90
8862;DHT22;4799;50.996;4.754;2022-12-18T13:20:37;0.10;99.90
8862;DHT22;4799;50.996;4.754;2022-12-18T13:31:00;0.10;99.90
8862;DHT22;4799;50.996;4.754;2022-12-18T13:38:43;0.10;99.90
8862;DHT22;4799;50.996;4.754;2022-12-18T13:41:23;0.10;99.90
8862;DHT22;4799;50.996;4.754;2022-12-18T13:43:51;0.10;99.90
8862;DHT22;4799;50.996;4.754;2022-12-18T13:46:24;0.10;99.90
8862;DHT22;4799;50.996;4.754;2022-12-18T13:49:50;0.10;99.90
8862;DHT22;4799;50.996;4.754;2022-12-18T13:51:53;0.10;99.90
8862;DHT22;4799;50.996;4.754;2022-12-18T13:56:47;0.10;99.90
8862;DHT22;4799;50.996;4.754;2022-12-18T13:59:22;0.00;99.90
8862;DHT22;4799;50.996;4.754;2022-12-18T14:02:00;0.10;99.90
8862;DHT22;4799;50.996;4.754;2022-12-18T14:04:32;0.10;99.90
8862;DHT22;4799;50.996;4.754;2022-12-18T14:07:12;0.10;99.90
8862;DHT22;4799;50.996;4.754;2022-12-18T14:09:45;0.10;99.90
8862;DHT22;4799;50.996;4.754;2022-12-18T14:12:32;0.10;99.90
8862;DHT22;4799;50.996;4.754;2022-12-18T14:20:24;0.10;99.90
8862;DHT22;4799;50.996;4.754;2022-12-18T14:22:50;0.10;99.90
8862;DHT22;4799;50.996;4.754;2022-12-18T14:25:20;0.10;99.90
8862;DHT22;4799;50.996;4.754;2022-12-18T14:35:27;0.20;99.90
8862;DHT22;4799;50.996;4.754;2022-12-18T14:37:52;0.20;99.90
8862;DHT22;4799;50.996;4.754;2022-12-18T14:40:19;0.20;99.90
8862;DHT22;4799;50.996;4.754;2022-12-18T14:42:45;0.20;99.90
8862;DHT22;4799;50.996;4.754;2022-12-18T14:45:36;0.20;99.90
8862;DHT22;4799;50.996;4.754;2022-12-18T14:48:19;0.10;99.90
8862;DHT22;4799;50.996;4.754;2022-12-18T14:50:58;0.10;99.90
8862;DHT22;4799;50.996;4.754;2022-12-18T14:53:40;0.10;99.90
8862;DHT22;4799;50.996;4.754;2022-12-18T14:56:33;0.10;99.90
8862;DHT22;4799;50.996;4.754;2022-12-18T14:59:02;0.10;99.90
8862;DHT22;4799;50.996;4.754;2022-12-18T15:01:37;0.00;99.90
8862;DHT22;4799;50.996;4.754;2022-12-18T15:04:05;0.00;99.90
8862;DHT22;4799;50.996;4.754;2022-12-18T15:06:48;0.00;99.90
8862;DHT22;4799;50.996;4.754;2022-12-18T15:09:25;0.00;99.90
8862;DHT22;4799;50.996;4.754;2022-12-18T15:11:57;0.00;99.90
8862;DHT22;4799;50.996;4.754;2022-12-18T15:14:39;0.00;99.90
8862;DHT22;4799;50.996;4.754;2022-12-18T15:17:23;0.00;99.90
8862;DHT22;4799;50.996;4.754;2022-12-18T15:19:52;0.00;99.90
8862;DHT22;4799;50.996;4.754;2022-12-18T15:22:21;0.00;99.90
8862;DHT22;4799;50.996;4.754;2022-12-18T15:24:49;0.00;99.90
8862;DHT22;4799;50.996;4.754;2022-12-18T15:27:35;0.00;99.90
8862;DHT22;4799;50.996;4.754;2022-12-18T15:32:36;0.00;99.90
8862;DHT22;4799;50.996;4.754;2022-12-18T15:35:23;0.00;99.90
8862;DHT22;4799;50.996;4.754;2022-12-18T15:37:51;0.00;99.90
8862;DHT22;4799;50.996;4.754;2022-12-18T15:40:21;0.00;99.90
8862;DHT22;4799;50.996;4.754;2022-12-18T15:42:48;0.00;99.90
8862;DHT22;4799;50.996;4.754;2022-12-18T15:45:35;-0.10;99.90
8862;DHT22;4799;50.996;4.754;2022-12-18T15:48:00;0.00;99.90
8862;DHT22;4799;50.996;4.754;2022-12-18T15:50:26;0.00;99.90
8862;DHT22;4799;50.996;4.754;2022-12-18T15:52:53;0.00;99.90
8862;DHT22;4799;50.996;4.754;2022-12-18T15:55:22;0.10;99.90
8862;DHT22;4799;50.996;4.754;2022-12-18T15:58:08;0.10;99.90
8862;DHT22;4799;50.996;4.754;2022-12-18T16:00:36;0.10;99.90
8862;DHT22;4799;50.996;4.754;2022-12-18T16:03:04;0.10;99.90
8862;DHT22;4799;50.996;4.754;2022-12-18T16:05:30;0.10;99.90
8862;DHT22;4799;50.996;4.754;2022-12-18T16:07:57;0.10;99.90
8862;DHT22;4799;50.996;4.754;2022-12-18T16:10:25;0.10;99.90
8862;DHT22;4799;50.996;4.754;2022-12-18T16:12:52;0.10;99.90
8862;DHT22;4799;50.996;4.754;2022-12-18T16:15:18;0.20;99.90
8862;DHT22;4799;50.996;4.754;2022-12-18T16:17:44;0.20;99.90
8862;DHT22;4799;50.996;4.754;2022-12-18T16:20:18;0.20;99.90
8862;DHT22;4799;50.996;4.754;2022-12-18T16:22:45;0.20;99.90
8862;DHT22;4799;50.996;4.754;2022-12-18T16:25:30;0.30;99.90
8862;DHT22;4799;50.996;4.754;2022-12-18T16:27:56;0.30;99.90
8862;DHT22;4799;50.996;4.754;2022-12-18T16:30:25;0.30;99.90
8862;DHT22;4799;50.996;4.754;2022-12-18T16:32:53;0.40;99.90
8862;DHT22;4799;50.996;4.754;2022-12-18T16:35:19;0.30;99.90
8862;DHT22;4799;50.996;4.754;2022-12-18T16:37:46;0.40;99.90
8862;DHT22;4799;50.996;4.754;2022-12-18T16:40:14;0.40;99.90
8862;DHT22;4799;50.996;4.754;2022-12-18T16:42:42;0.50;99.90
8862;DHT22;4799;50.996;4.754;2022-12-18T16:45:11;0.50;99.90
8862;DHT22;4799;50.996;4.754;2022-12-18T16:47:38;0.50;99.90
8862;DHT22;4799;50.996;4.754;2022-12-18T16:50:04;0.50;99.90
8862;DHT22;4799;50.996;4.754;2022-12-18T16:52:30;0.50;99.90
8862;DHT22;4799;50.996;4.754;2022-12-18T16:54:56;0.60;99.90
8862;DHT22;4799;50.996;4.754;2022-12-18T16:57:22;0.60;99.90
8862;DHT22;4799;50.996;4.754;2022-12-18T16:59:48;0.50;99.90
8862;DHT22;4799;50.996;4.754;2022-12-18T17:02:17;0.60;99.90
8862;DHT22;4799;50.996;4.754;2022-12-18T17:04:44;0.60;99.90
8862;DHT22;4799;50.996;4.754;2022-12-18T17:07:10;0.60;99.90
8862;DHT22;4799;50.996;4.754;2022-12-18T17:09:37;0.60;99.90
8862;DHT22;4799;50.996;4.754;2022-12-18T17:12:04;0.60;99.90
8862;DHT22;4799;50.996;4.754;2022-12-18T17:14:31;0.60;99.90
8862;DHT22;4799;50.996;4.754;2022-12-18T17:16:57;0.70;99.90
8862;DHT22;4799;50.996;4.754;2022-12-18T17:19:25;0.70;99.90
8862;DHT22;4799;50.996;4.754;2022-12-18T17:21:51;0.70;99.90
8862;DHT22;4799;50.996;4.754;2022-12-18T17:24:18;0.70;99.90
8862;DHT22;4799;50.996;4.754;2022-12-18T17:26:44;0.80;99.90
8862;DHT22;4799;50.996;4.754;2022-12-18T17:29:15;0.80;99.90
8862;DHT22;4799;50.996;4.754;2022-12-18T17:31:41;0.80;99.90
8862;DHT22;4799;50.996;4.754;2022-12-18T17:34:09;0.80;99.90
8862;DHT22;4799;50.996;4.754;2022-12-18T17:36:36;0.80;99.90
8862;DHT22;4799;50.996;4.754;2022-12-18T17:39:03;0.80;99.90
8862;DHT22;4799;50.996;4.754;2022-12-18T17:41:30;0.90;99.90
8862;DHT22;4799;50.996;4.754;2022-12-18T17:44:02;0.90;99.90
8862;DHT22;4799;50.996;4.754;2022-12-18T17:46:29;0.90;99.90
8862;DHT22;4799;50.996;4.754;2022-12-18T17:48:57;0.90;99.90
8862;DHT22;4799;50.996;4.754;2022-12-18T17:51:23;1.00;99.90
8862;DHT22;4799;50.996;4.754;2022-12-18T17:53:49;1.00;99.90
8862;DHT22;4799;50.996;4.754;2022-12-18T17:56:17;1.00;99.90
8862;DHT22;4799;50.996;4.754;2022-12-18T17:58:43;1.00;99.90
8862;DHT22;4799;50.996;4.754;2022-12-18T18:01:11;1.00;99.90
8862;DHT22;4799;50.996;4.754;2022-12-18T18:03:38;1.00;99.90
8862;DHT22;4799;50.996;4.754;2022-12-18T18:06:04;1.00;99.90
8862;DHT22;4799;50.996;4.754;2022-12-18T18:08:30;1.10;99.90
8862;DHT22;4799;50.996;4.754;2022-12-18T18:11:03;1.00;99.90
8862;DHT22;4799;50.996;4.754;2022-12-18T18:13:49;1.10;99.90
8862;DHT22;4799;50.996;4.754;2022-12-18T18:16:36;1.10;99.90
8862;DHT22;4799;50.996;4.754;2022-12-18T18:19:04;1.00;99.90
8862;DHT22;4799;50.996;4.754;2022-12-18T18:21:32;1.00;99.90
8862;DHT22;4799;50.996;4.754;2022-12-18T18:23:59;1.00;99.90
8862;DHT22;4799;50.996;4.754;2022-12-18T18:26:25;1.00;99.90
8862;DHT22;4799;50.996;4.754;2022-12-18T18:28:54;1.00;99.90
8862;DHT22;4799;50.996;4.754;2022-12-18T18:31:19;1.00;99.90
8862;DHT22;4799;50.996;4.754;2022-12-18T18:33:45;1.00;99.90
8862;DHT22;4799;50.996;4.754;2022-12-18T18:36:11;1.00;99.90
8862;DHT22;4799;50.996;4.754;2022-12-18T18:38:37;1.00;99.90